Alder Grove, Washington
Current Conditions -  °F | °C
As of 8:38 PM on Monday 20 Oct 2014 (Local Time) from KSHN Reporting Station
Light Rain Light Rain  
Wind Chill: 54°   Ceiling: 4800
Heat Index: 54°   Visibility: 8mi
Dew Point: 52°   Wind: 5mph
Humidity: 93%   Direction: 250°WSW
Pressure: 29.75"   Gusts: NA
Location:  47.555°N, 123.746°W
Report Text: KSHN 210338Z AUTO 25004KT 8SM -RA SCT019 BKN048 BKN065 12/11 A2975 RMK AO2 RAE01B30 P0000 T01220111 TSNO
Loading
Personal Weather Stations






























Interactive Weather Map
Tropical Storm Tracking
New forecast layout! Learn more

10-Day Weather Forecast

Advertisements
Track Severe Weather on mobile